Time;durP1;ratioP1;P1;durP2;ratioP2;P2;SDS_P1;SDS_P2;PMS_P1;PMS_P2;Temp;Humidity;BMP_temperature;BMP_pressure;BME280_temperature;BME280_humidity;BME280_pressure;Samples;Min_cycle;Max_cycle;Signal;HPM_P1;HPM_P2
2022/01/02 00:00:02;;;;;;;11.55;7.28;;;;;;;;;;5051276;28;20090;-73
2022/01/02 00:02:29;;;;;;;15.15;8.38;;;;;;;;;;5050401;28;20397;-72
2022/01/02 00:05:02;;;;;;;15.77;9.60;;;;;;;;;;5050215;28;20116;-73
2022/01/02 00:07:30;;;;;;;23.65;11.50;;;;;;;;;;5051168;28;20451;-74
2022/01/02 00:09:57;;;;;;;15.05;7.97;;;;;;;;;;5027418;28;20502;-72
2022/01/02 00:12:26;;;;;;;10.40;7.22;;;;;;;;;;5048250;28;20104;-73
2022/01/02 00:14:55;;;;;;;15.55;8.32;;;;;;;;;;5049683;28;20056;-72
2022/01/02 00:17:23;;;;;;;9.60;7.03;;;;;;;;;;5049462;28;20051;-71
2022/01/02 00:19:54;;;;;;;12.75;7.63;;;;;;;;;;5032374;28;20033;-72
2022/01/02 00:22:26;;;;;;;18.65;7.10;;;;;;;;;;5050256;28;20024;-70
2022/01/02 00:24:53;;;;;;;19.27;9.38;;;;;;;;;;5032150;28;20028;-72
2022/01/02 00:27:19;;;;;;;16.27;9.93;;;;;;;;;;5044630;28;20490;-72
2022/01/02 00:29:45;;;;;;;15.43;9.00;;;;;;;;;;5051090;28;20033;-72
2022/01/02 00:32:12;;;;;;;12.18;7.50;;;;;;;;;;5050798;28;20044;-73
2022/01/02 00:34:39;;;;;;;13.60;7.40;;;;;;;;;;5032008;28;20109;-73
2022/01/02 00:37:05;;;;;;;11.68;7.32;;;;;;;;;;5050717;28;20029;-73
2022/01/02 00:39:32;;;;;;;13.15;6.35;;;;;;;;;;5032614;28;20052;-72
2022/01/02 00:42:05;;;;;;;12.02;6.68;;;;;;;;;;5032499;28;20029;-72
2022/01/02 00:44:48;;;;;;;13.70;7.50;;;;;;;;;;5049828;28;20029;-72
2022/01/02 00:47:33;;;;;;;14.05;6.68;;;;;;;;;;5050841;28;20106;-73
2022/01/02 00:50:02;;;;;;;15.60;6.57;;;;;;;;;;5032776;28;20058;-72
2022/01/02 00:52:29;;;;;;;13.15;6.60;;;;;;;;;;5050506;28;20025;-71
2022/01/02 00:54:57;;;;;;;12.00;6.93;;;;;;;;;;5050058;28;20021;-71
2022/01/02 00:57:30;;;;;;;15.38;7.70;;;;;;;;;;5032546;28;20098;-72
2022/01/02 01:00:12;;;;;;;12.63;6.90;;;;;;;;;;5050550;28;20025;-72
2022/01/02 01:02:48;;;;;;;25.30;11.85;;;;;;;;;;5032325;28;20493;-73
2022/01/02 01:05:20;;;;;;;25.48;10.95;;;;;;;;;;5050097;28;20037;-72
2022/01/02 01:07:48;;;;;;;15.35;9.25;;;;;;;;;;5050336;28;20013;-71
2022/01/02 01:10:14;;;;;;;13.38;8.10;;;;;;;;;;5050416;28;20056;-72
2022/01/02 01:12:40;;;;;;;13.80;8.93;;;;;;;;;;5033677;28;20017;-70
2022/01/02 01:15:07;;;;;;;11.07;7.68;;;;;;;;;;5051161;28;20039;-72
2022/01/02 01:17:34;;;;;;;13.77;8.43;;;;;;;;;;5036465;28;20036;-71
2022/01/02 01:20:00;;;;;;;15.27;8.57;;;;;;;;;;5054322;28;20029;-72
2022/01/02 01:22:26;;;;;;;20.38;9.63;;;;;;;;;;5036722;28;20032;-72
2022/01/02 01:24:52;;;;;;;22.85;11.02;;;;;;;;;;5054350;28;20053;-73
2022/01/02 01:27:18;;;;;;;13.45;8.35;;;;;;;;;;5054694;28;20052;-73
2022/01/02 01:29:44;;;;;;;12.98;8.43;;;;;;;;;;5036319;28;20025;-72
2022/01/02 01:32:10;;;;;;;14.30;8.85;;;;;;;;;;5054074;28;20029;-72
2022/01/02 01:34:36;;;;;;;14.90;7.93;;;;;;;;;;5035242;28;20025;-72
2022/01/02 01:37:02;;;;;;;13.10;8.00;;;;;;;;;;5054183;28;20032;-73
2022/01/02 01:39:28;;;;;;;22.50;11.60;;;;;;;;;;5054087;28;20033;-73
2022/01/02 01:41:56;;;;;;;18.92;9.02;;;;;;;;;;5054050;28;20081;-73
2022/01/02 01:44:40;;;;;;;12.27;6.82;;;;;;;;;;5044805;28;20021;-73
2022/01/02 01:47:06;;;;;;;14.68;8.38;;;;;;;;;;5040696;28;20099;-73
2022/01/02 01:49:32;;;;;;;14.10;8.05;;;;;;;;;;5050316;28;20456;-72
2022/01/02 01:51:58;;;;;;;15.07;7.38;;;;;;;;;;5051032;28;20029;-73
2022/01/02 01:54:25;;;;;;;20.27;8.63;;;;;;;;;;5050214;28;20028;-73
2022/01/02 01:56:52;;;;;;;14.02;7.65;;;;;;;;;;5053771;28;20274;-73
2022/01/02 01:59:18;;;;;;;15.40;7.60;;;;;;;;;;5053576;28;20402;-72
2022/01/02 02:01:45;;;;;;;14.60;7.03;;;;;;;;;;5053455;28;20158;-73
2022/01/02 02:04:11;;;;;;;11.40;7.13;;;;;;;;;;5052823;28;20029;-72
2022/01/02 02:06:37;;;;;;;14.18;7.75;;;;;;;;;;5053316;28;20092;-72
2022/01/02 02:09:05;;;;;;;11.90;7.00;;;;;;;;;;5035888;28;20021;-71
2022/01/02 02:11:32;;;;;;;12.43;7.07;;;;;;;;;;5053392;28;20074;-72
2022/01/02 02:13:58;;;;;;;15.00;7.65;;;;;;;;;;5052673;28;20524;-72
2022/01/02 02:16:24;;;;;;;17.08;8.50;;;;;;;;;;5052800;28;20033;-72
2022/01/02 02:18:50;;;;;;;13.18;7.18;;;;;;;;;;5053375;28;20025;-72
2022/01/02 02:21:16;;;;;;;11.55;7.20;;;;;;;;;;5035107;28;20374;-72
2022/01/02 02:23:45;;;;;;;13.00;7.03;;;;;;;;;;5052299;28;20039;-72
2022/01/02 02:26:11;;;;;;;17.30;6.82;;;;;;;;;;5052807;28;20441;-72
2022/01/02 02:28:37;;;;;;;16.85;7.93;;;;;;;;;;5053196;28;20100;-70
2022/01/02 02:31:03;;;;;;;9.57;6.60;;;;;;;;;;5053601;28;20025;-72
2022/01/02 02:33:29;;;;;;;9.43;5.70;;;;;;;;;;5052782;28;20029;-73
2022/01/02 02:35:55;;;;;;;10.85;6.03;;;;;;;;;;5052986;28;20021;-73
2022/01/02 02:38:22;;;;;;;8.85;6.28;;;;;;;;;;5052902;28;20490;-72
2022/01/02 02:40:48;;;;;;;11.57;6.43;;;;;;;;;;5052994;28;20048;-73
2022/01/02 02:51:29;;;;;;;12.40;6.85;;;;;;;;;;5052731;28;20071;-73
2022/01/02 02:53:55;;;;;;;12.50;6.53;;;;;;;;;;5051888;28;20518;-73
2022/01/02 02:56:25;;;;;;;12.02;6.13;;;;;;;;;;5052837;28;20116;-72
2022/01/02 02:58:55;;;;;;;11.82;5.50;;;;;;;;;;5052412;28;20023;-73
2022/01/02 03:01:22;;;;;;;10.10;6.05;;;;;;;;;;5050821;28;20025;-73
2022/01/02 03:03:48;;;;;;;15.95;6.45;;;;;;;;;;5051709;28;20443;-71
2022/01/02 03:06:14;;;;;;;9.38;5.75;;;;;;;;;;5034186;28;20036;-69
2022/01/02 03:08:41;;;;;;;19.60;6.88;;;;;;;;;;5052684;28;20043;-72
2022/01/02 03:11:12;;;;;;;12.77;6.53;;;;;;;;;;5034470;28;20509;-72
2022/01/02 03:13:38;;;;;;;12.77;6.45;;;;;;;;;;5051478;28;20548;-72
2022/01/02 03:16:04;;;;;;;10.15;5.32;;;;;;;;;;5034391;28;20308;-72
2022/01/02 03:18:30;;;;;;;10.13;5.55;;;;;;;;;;5052072;28;20017;-71
2022/01/02 03:20:56;;;;;;;12.40;6.20;;;;;;;;;;5051808;28;20104;-71
2022/01/02 03:23:22;;;;;;;15.32;6.88;;;;;;;;;;5051178;28;20060;-71
2022/01/02 03:25:48;;;;;;;9.38;5.70;;;;;;;;;;5052047;28;20032;-72
2022/01/02 03:28:14;;;;;;;10.13;5.80;;;;;;;;;;5052116;28;20036;-73
2022/01/02 03:30:41;;;;;;;12.25;6.40;;;;;;;;;;5052399;28;20021;-72
2022/01/02 03:33:07;;;;;;;14.20;7.60;;;;;;;;;;5051208;28;20017;-70
2022/01/02 03:35:33;;;;;;;11.90;6.65;;;;;;;;;;5051653;28;20036;-72
2022/01/02 03:37:59;;;;;;;10.02;6.00;;;;;;;;;;5051271;28;20028;-73
2022/01/02 03:40:25;;;;;;;12.32;6.53;;;;;;;;;;5052143;28;20021;-72
2022/01/02 03:42:51;;;;;;;13.63;6.88;;;;;;;;;;5033097;28;20048;-71
2022/01/02 03:45:17;;;;;;;14.75;6.70;;;;;;;;;;5033752;28;20482;-72
2022/01/02 03:47:43;;;;;;;12.57;6.47;;;;;;;;;;5051873;28;20029;-73
2022/01/02 03:50:09;;;;;;;10.98;6.22;;;;;;;;;;5051794;28;20029;-72
2022/01/02 03:52:35;;;;;;;15.45;5.93;;;;;;;;;;5051503;28;20099;-73
2022/01/02 03:55:01;;;;;;;14.98;6.55;;;;;;;;;;5048635;28;20127;-72
2022/01/02 03:57:27;;;;;;;11.27;6.55;;;;;;;;;;5041570;28;20082;-72
2022/01/02 03:59:53;;;;;;;12.20;6.93;;;;;;;;;;5051549;28;20075;-71
2022/01/02 04:02:19;;;;;;;10.07;6.10;;;;;;;;;;5051276;28;20035;-73
2022/01/02 04:04:45;;;;;;;11.38;6.05;;;;;;;;;;5050520;28;20024;-71
2022/01/02 04:07:11;;;;;;;11.18;6.53;;;;;;;;;;5051348;28;20021;-71
2022/01/02 04:09:37;;;;;;;10.68;6.60;;;;;;;;;;5051420;28;20052;-72
2022/01/02 04:12:03;;;;;;;9.27;7.10;;;;;;;;;;5033303;28;20044;-71
2022/01/02 04:14:29;;;;;;;12.25;7.35;;;;;;;;;;5050578;28;20441;-71
2022/01/02 04:16:55;;;;;;;12.98;6.30;;;;;;;;;;5033481;28;20734;-72
2022/01/02 04:19:21;;;;;;;10.45;6.60;;;;;;;;;;5050973;28;20043;-71
2022/01/02 04:21:47;;;;;;;11.80;6.65;;;;;;;;;;5051173;28;20397;-73
2022/01/02 04:24:13;;;;;;;11.27;5.35;;;;;;;;;;5050411;28;20021;-73
2022/01/02 04:26:39;;;;;;;20.80;9.85;;;;;;;;;;5034509;28;20021;-72
2022/01/02 04:29:06;;;;;;;19.40;9.55;;;;;;;;;;5051116;28;20045;-73
2022/01/02 04:31:32;;;;;;;11.77;7.05;;;;;;;;;;5050677;28;20017;-73
2022/01/02 04:33:58;;;;;;;13.98;7.95;;;;;;;;;;5050057;28;20029;-73
2022/01/02 04:36:24;;;;;;;13.32;8.32;;;;;;;;;;5051072;28;20036;-72
2022/01/02 04:38:50;;;;;;;13.93;7.60;;;;;;;;;;5033166;28;20021;-73
2022/01/02 04:41:16;;;;;;;15.13;7.82;;;;;;;;;;5050559;28;20032;-73
2022/01/02 04:43:42;;;;;;;14.30;8.57;;;;;;;;;;5051055;28;20056;-73
2022/01/02 04:46:08;;;;;;;14.90;9.32;;;;;;;;;;5050647;28;20021;-72
2022/01/02 04:48:34;;;;;;;13.30;8.70;;;;;;;;;;5050295;28;20482;-72
2022/01/02 04:51:00;;;;;;;15.25;8.40;;;;;;;;;;5050406;28;20028;-72
2022/01/02 04:53:26;;;;;;;16.13;8.15;;;;;;;;;;5049855;28;20596;-71
2022/01/02 04:55:52;;;;;;;13.48;7.82;;;;;;;;;;5050576;28;20049;-73
2022/01/02 04:58:18;;;;;;;12.13;7.90;;;;;;;;;;5050697;28;20100;-73
2022/01/02 05:00:44;;;;;;;15.48;8.10;;;;;;;;;;5050311;28;20029;-73
2022/01/02 05:03:10;;;;;;;11.98;8.10;;;;;;;;;;5031823;28;20446;-73
2022/01/02 05:05:36;;;;;;;12.32;7.82;;;;;;;;;;5032235;28;20482;-73
2022/01/02 05:08:02;;;;;;;13.75;8.52;;;;;;;;;;5050142;28;20032;-72
2022/01/02 05:10:28;;;;;;;14.13;7.68;;;;;;;;;;5050225;28;20028;-71
2022/01/02 05:12:54;;;;;;;13.30;7.43;;;;;;;;;;5049780;28;20021;-72
2022/01/02 05:15:21;;;;;;;10.68;6.35;;;;;;;;;;5050093;28;20071;-73
2022/01/02 05:17:47;;;;;;;14.43;7.28;;;;;;;;;;5050159;28;20801;-72
2022/01/02 05:20:13;;;;;;;14.35;7.07;;;;;;;;;;5050249;28;20025;-73
2022/01/02 05:22:40;;;;;;;14.15;7.55;;;;;;;;;;5033546;28;20024;-71
2022/01/02 05:25:06;;;;;;;13.68;7.50;;;;;;;;;;5050097;28;20021;-72
2022/01/02 05:27:32;;;;;;;10.00;6.00;;;;;;;;;;5031952;28;20186;-72
2022/01/02 05:29:58;;;;;;;25.40;9.45;;;;;;;;;;5050087;28;20113;-72
2022/01/02 05:32:24;;;;;;;17.02;7.53;;;;;;;;;;5049862;28;20030;-72
2022/01/02 05:34:50;;;;;;;15.57;7.68;;;;;;;;;;5031657;28;20070;-73
2022/01/02 05:37:16;;;;;;;11.23;6.72;;;;;;;;;;5032241;28;20089;-72
2022/01/02 05:39:42;;;;;;;13.43;7.85;;;;;;;;;;5050263;28;20033;-73
2022/01/02 05:42:08;;;;;;;12.02;6.88;;;;;;;;;;5049805;28;20040;-72
2022/01/02 05:44:34;;;;;;;9.73;7.72;;;;;;;;;;5030929;28;20517;-72
2022/01/02 05:47:00;;;;;;;14.70;8.80;;;;;;;;;;5050060;28;20021;-73
2022/01/02 05:49:26;;;;;;;13.63;8.38;;;;;;;;;;5049639;28;20021;-71
2022/01/02 05:51:52;;;;;;;12.90;7.60;;;;;;;;;;5049766;28;20017;-73
2022/01/02 05:54:18;;;;;;;19.20;9.75;;;;;;;;;;5049084;28;20028;-72
2022/01/02 05:56:44;;;;;;;16.42;8.40;;;;;;;;;;5042658;28;20069;-72
2022/01/02 05:59:10;;;;;;;15.77;8.85;;;;;;;;;;5031852;28;20017;-72
2022/01/02 06:01:36;;;;;;;11.27;7.85;;;;;;;;;;5050946;28;20029;-72
2022/01/02 06:04:02;;;;;;;14.60;8.77;;;;;;;;;;5052851;28;20032;-74
2022/01/02 06:06:28;;;;;;;13.15;8.18;;;;;;;;;;5035730;28;20489;-73
2022/01/02 06:08:54;;;;;;;12.82;8.10;;;;;;;;;;5053391;28;20385;-73
2022/01/02 06:11:20;;;;;;;13.60;8.05;;;;;;;;;;5035520;28;20112;-73
2022/01/02 06:13:46;;;;;;;15.40;8.95;;;;;;;;;;5052519;28;20056;-73
2022/01/02 06:16:12;;;;;;;15.02;8.30;;;;;;;;;;5053334;28;20021;-73
2022/01/02 06:18:39;;;;;;;14.02;8.38;;;;;;;;;;5053308;28;20100;-71
2022/01/02 06:21:05;;;;;;;14.80;8.43;;;;;;;;;;5053233;28;20116;-73
2022/01/02 06:23:31;;;;;;;16.00;9.30;;;;;;;;;;5052285;28;20479;-73
2022/01/02 06:25:57;;;;;;;15.70;9.00;;;;;;;;;;5052980;28;20025;-73
2022/01/02 06:28:23;;;;;;;16.60;7.75;;;;;;;;;;5052739;28;20063;-73
2022/01/02 06:30:49;;;;;;;16.63;7.95;;;;;;;;;;5053030;28;20025;-72
2022/01/02 06:33:15;;;;;;;12.48;8.10;;;;;;;;;;5034358;28;20017;-73
2022/01/02 06:35:41;;;;;;;15.73;8.25;;;;;;;;;;5052754;28;20037;-71
2022/01/02 06:38:11;;;;;;;22.33;10.27;;;;;;;;;;5053014;28;20029;-73
2022/01/02 06:40:37;;;;;;;13.02;8.15;;;;;;;;;;5052882;28;20024;-73
2022/01/02 06:43:03;;;;;;;12.93;8.43;;;;;;;;;;5033839;28;20049;-72
2022/01/02 06:45:30;;;;;;;19.08;10.50;;;;;;;;;;5052472;28;20478;-73
2022/01/02 06:47:56;;;;;;;15.45;8.93;;;;;;;;;;5052859;28;20025;-73
2022/01/02 06:50:22;;;;;;;15.32;9.77;;;;;;;;;;5052711;28;20028;-72
2022/01/02 06:52:48;;;;;;;13.60;8.57;;;;;;;;;;5034262;28;20083;-72
2022/01/02 06:55:14;;;;;;;14.65;8.57;;;;;;;;;;5052716;28;20040;-73
2022/01/02 06:57:39;;;;;;;15.93;8.43;;;;;;;;;;5052347;28;20036;-72
2022/01/02 07:00:06;;;;;;;21.23;10.57;;;;;;;;;;5052602;28;20394;-73
2022/01/02 07:02:33;;;;;;;26.83;10.32;;;;;;;;;;5034445;28;20025;-72
2022/01/02 07:04:59;;;;;;;15.20;9.73;;;;;;;;;;5033727;28;20021;-72
2022/01/02 07:07:25;;;;;;;15.32;8.98;;;;;;;;;;5034210;28;20386;-72
2022/01/02 07:09:51;;;;;;;15.20;9.27;;;;;;;;;;5052191;28;20021;-71
2022/01/02 07:12:17;;;;;;;15.77;9.20;;;;;;;;;;5051173;28;20025;-70
2022/01/02 07:14:43;;;;;;;15.32;9.60;;;;;;;;;;5050797;28;20378;-73
2022/01/02 07:17:09;;;;;;;20.80;11.30;;;;;;;;;;5052431;28;20033;-73
2022/01/02 07:19:35;;;;;;;13.98;9.13;;;;;;;;;;5051888;28;20382;-71
2022/01/02 07:22:01;;;;;;;15.52;10.38;;;;;;;;;;5052002;28;20021;-71
2022/01/02 07:24:27;;;;;;;14.98;9.85;;;;;;;;;;5051741;28;20060;-72
2022/01/02 07:26:54;;;;;;;12.98;8.48;;;;;;;;;;5034137;28;20028;-73
2022/01/02 07:29:20;;;;;;;25.38;10.77;;;;;;;;;;5052130;28;20036;-71
2022/01/02 07:31:46;;;;;;;17.20;9.50;;;;;;;;;;5052088;28;20505;-73
2022/01/02 07:34:15;;;;;;;15.98;9.15;;;;;;;;;;5051458;28;20028;-73
2022/01/02 07:36:44;;;;;;;18.05;9.82;;;;;;;;;;5035547;28;20029;-72
2022/01/02 07:39:11;;;;;;;15.05;9.43;;;;;;;;;;5052085;28;20024;-72
2022/01/02 07:41:37;;;;;;;15.95;9.20;;;;;;;;;;5051364;28;20037;-72
2022/01/02 07:44:03;;;;;;;15.60;8.90;;;;;;;;;;5050974;28;20052;-72
2022/01/02 07:46:30;;;;;;;14.18;8.98;;;;;;;;;;5051397;28;20295;-72
2022/01/02 07:48:56;;;;;;;12.60;8.35;;;;;;;;;;5033659;28;20398;-72
2022/01/02 07:51:22;;;;;;;15.82;8.63;;;;;;;;;;5051399;28;20368;-72
2022/01/02 07:53:48;;;;;;;16.65;8.85;;;;;;;;;;5050523;28;20071;-72
2022/01/02 07:56:15;;;;;;;16.60;8.75;;;;;;;;;;5032682;28;20046;-71
2022/01/02 07:58:41;;;;;;;15.57;7.80;;;;;;;;;;5051300;28;20048;-71
2022/01/02 08:01:07;;;;;;;18.35;9.23;;;;;;;;;;5050488;28;20056;-72
2022/01/02 08:03:33;;;;;;;12.20;8.07;;;;;;;;;;5049155;28;20375;-72
2022/01/02 08:05:59;;;;;;;15.00;8.95;;;;;;;;;;5023511;28;20037;-72
2022/01/02 08:08:25;;;;;;;13.65;7.60;;;;;;;;;;5048970;28;20025;-72
2022/01/02 08:10:51;;;;;;;14.38;6.90;;;;;;;;;;5033378;28;20562;-72
2022/01/02 08:13:16;;;;;;;14.18;7.88;;;;;;;;;;5050338;28;20032;-71
2022/01/02 08:15:43;;;;;;;13.23;7.35;;;;;;;;;;5049418;28;20085;-71
2022/01/02 08:18:13;;;;;;;13.20;7.60;;;;;;;;;;5051065;28;20028;-72
2022/01/02 08:20:39;;;;;;;10.43;7.28;;;;;;;;;;5039138;28;20107;-73
2022/01/02 08:23:05;;;;;;;14.60;7.55;;;;;;;;;;5032163;28;20055;-72
2022/01/02 08:25:31;;;;;;;10.50;7.05;;;;;;;;;;5032326;28;20112;-73
2022/01/02 08:27:57;;;;;;;12.52;8.10;;;;;;;;;;5050958;28;20045;-72
2022/01/02 08:30:23;;;;;;;13.77;7.10;;;;;;;;;;5033109;28;20547;-73
2022/01/02 08:32:49;;;;;;;11.98;7.82;;;;;;;;;;5050071;28;20017;-73
2022/01/02 08:35:15;;;;;;;10.60;7.65;;;;;;;;;;5050425;28;20040;-73
2022/01/02 08:37:41;;;;;;;10.75;7.00;;;;;;;;;;5032545;28;20029;-73
2022/01/02 08:40:08;;;;;;;11.00;6.75;;;;;;;;;;5050565;28;20501;-72
2022/01/02 08:42:34;;;;;;;12.82;7.28;;;;;;;;;;5032443;28;20041;-72
2022/01/02 08:45:00;;;;;;;12.77;7.43;;;;;;;;;;5032037;28;20064;-72
2022/01/02 08:47:26;;;;;;;12.75;7.82;;;;;;;;;;5032810;28;20367;-73
2022/01/02 08:49:52;;;;;;;12.02;6.88;;;;;;;;;;5033193;28;20032;-73
2022/01/02 08:52:19;;;;;;;12.57;7.70;;;;;;;;;;5032392;28;20116;-73
2022/01/02 08:54:45;;;;;;;10.88;6.28;;;;;;;;;;5050037;28;20049;-74
2022/01/02 08:57:13;;;;;;;12.77;6.43;;;;;;;;;;5050132;28;20386;-77
2022/01/02 08:59:43;;;;;;;13.45;6.63;;;;;;;;;;5044464;28;20021;-76
2022/01/02 09:02:09;;;;;;;10.50;7.22;;;;;;;;;;5026036;28;20040;-76
2022/01/02 09:04:37;;;;;;;10.32;6.95;;;;;;;;;;5049307;28;20076;-76
2022/01/02 09:07:06;;;;;;;10.73;6.55;;;;;;;;;;5024157;28;20020;-77
2022/01/02 09:09:33;;;;;;;10.68;6.00;;;;;;;;;;5049793;28;20044;-76
2022/01/02 09:11:59;;;;;;;10.65;7.10;;;;;;;;;;5049384;28;20024;-76
2022/01/02 09:14:28;;;;;;;11.60;7.00;;;;;;;;;;5030327;28;20032;-77
2022/01/02 09:16:57;;;;;;;11.88;7.20;;;;;;;;;;5049395;28;20036;-77
2022/01/02 09:19:23;;;;;;;9.02;6.53;;;;;;;;;;5049069;28;20025;-77
2022/01/02 09:21:49;;;;;;;13.50;7.72;;;;;;;;;;5049108;28;20035;-77
2022/01/02 09:24:15;;;;;;;11.82;7.20;;;;;;;;;;5030603;28;20487;-77
2022/01/02 09:26:41;;;;;;;13.93;8.05;;;;;;;;;;5040404;28;20071;-76
2022/01/02 09:29:10;;;;;;;11.82;7.53;;;;;;;;;;5031588;28;20025;-76
2022/01/02 09:31:36;;;;;;;14.77;7.70;;;;;;;;;;5049222;28;20120;-76
2022/01/02 09:34:02;;;;;;;13.77;7.93;;;;;;;;;;5049023;28;20096;-75
2022/01/02 09:36:28;;;;;;;13.98;7.65;;;;;;;;;;5051164;28;20108;-73
2022/01/02 09:38:54;;;;;;;14.48;8.05;;;;;;;;;;5053221;28;20473;-75
2022/01/02 09:41:20;;;;;;;13.90;7.47;;;;;;;;;;5033895;28;20024;-75
2022/01/02 09:43:50;;;;;;;10.43;6.85;;;;;;;;;;5052267;28;20018;-75
2022/01/02 09:46:23;;;;;;;14.02;7.53;;;;;;;;;;5053091;28;20028;-75
2022/01/02 09:48:50;;;;;;;12.90;6.80;;;;;;;;;;5053092;28;20013;-76
2022/01/02 09:51:21;;;;;;;13.90;7.70;;;;;;;;;;5052727;28;20029;-76
2022/01/02 09:53:47;;;;;;;13.40;8.17;;;;;;;;;;5053195;28;20024;-75
2022/01/02 09:56:14;;;;;;;13.32;8.63;;;;;;;;;;5054196;28;20259;-75
2022/01/02 09:58:42;;;;;;;13.70;8.20;;;;;;;;;;5033742;28;20013;-74
2022/01/02 10:01:13;;;;;;;12.25;7.85;;;;;;;;;;5043221;28;20017;-75
2022/01/02 10:03:43;;;;;;;15.07;7.07;;;;;;;;;;5052796;28;20398;-76
2022/01/02 10:06:09;;;;;;;12.52;7.15;;;;;;;;;;5053740;28;20025;-76
2022/01/02 10:08:36;;;;;;;12.07;7.30;;;;;;;;;;5054364;28;20041;-72
2022/01/02 10:11:07;;;;;;;12.13;6.47;;;;;;;;;;5035473;28;20025;-75
2022/01/02 10:13:33;;;;;;;;;;;;;;;;;;5052976;28;20131;-74
2022/01/02 10:15:59;;;;;;;11.00;6.22;;;;;;;;;;5035300;28;20429;-74
2022/01/02 10:18:25;;;;;;;16.23;9.18;;;;;;;;;;5035179;28;20029;-76
2022/01/02 10:20:51;;;;;;;15.00;7.53;;;;;;;;;;5035224;28;20017;-75
2022/01/02 10:23:20;;;;;;;13.35;7.43;;;;;;;;;;5052430;28;20036;-75
2022/01/02 10:25:48;;;;;;;11.43;7.95;;;;;;;;;;5034927;28;20021;-76
2022/01/02 10:28:29;;;;;;;12.95;8.02;;;;;;;;;;5052845;28;20154;-74
2022/01/02 10:31:03;;;;;;;11.57;7.45;;;;;;;;;;5052896;28;20035;-75
2022/01/02 10:33:31;;;;;;;20.00;7.30;;;;;;;;;;5033928;28;20021;-73
2022/01/02 10:35:58;;;;;;;12.23;7.60;;;;;;;;;;5052611;28;20386;-75
2022/01/02 10:38:24;;;;;;;15.63;8.65;;;;;;;;;;5052535;28;20116;-75
2022/01/02 10:40:50;;;;;;;11.82;7.45;;;;;;;;;;5053355;28;20059;-74
2022/01/02 10:43:25;;;;;;;12.65;8.07;;;;;;;;;;5053271;28;20425;-72
2022/01/02 10:45:52;;;;;;;12.65;7.95;;;;;;;;;;5052962;28;20029;-73
2022/01/02 10:48:29;;;;;;;13.70;7.88;;;;;;;;;;5052257;28;20032;-76
2022/01/02 10:51:00;;;;;;;15.38;8.35;;;;;;;;;;5052929;28;20032;-75
2022/01/02 10:53:26;;;;;;;14.05;7.95;;;;;;;;;;5033805;28;20032;-75
2022/01/02 10:55:52;;;;;;;13.32;8.20;;;;;;;;;;5052452;28;20075;-75
2022/01/02 10:58:19;;;;;;;10.48;7.28;;;;;;;;;;5053080;28;20036;-73
2022/01/02 11:00:45;;;;;;;11.90;7.80;;;;;;;;;;5052856;28;20017;-75
2022/01/02 11:03:16;;;;;;;18.27;8.60;;;;;;;;;;5052071;28;20112;-73
2022/01/02 11:05:45;;;;;;;12.52;8.43;;;;;;;;;;5052093;28;20498;-73
2022/01/02 11:08:12;;;;;;;45.90;22.23;;;;;;;;;;5052448;28;20026;-77
2022/01/02 11:10:38;;;;;;;123.20;57.47;;;;;;;;;;5052309;28;20021;-77
2022/01/02 11:13:05;;;;;;;39.83;20.15;;;;;;;;;;5033905;28;20033;-78
2022/01/02 11:15:32;;;;;;;24.95;12.88;;;;;;;;;;5034282;28;20056;-77
2022/01/02 11:17:58;;;;;;;12.40;8.55;;;;;;;;;;5052200;28;20021;-77
2022/01/02 11:20:25;;;;;;;15.32;9.25;;;;;;;;;;5034365;28;20466;-77
2022/01/02 11:23:12;;;;;;;17.13;8.38;;;;;;;;;;5033549;28;20312;-75
2022/01/02 11:25:57;;;;;;;14.90;8.40;;;;;;;;;;5051826;28;20024;-74
2022/01/02 11:28:23;;;;;;;11.68;8.27;;;;;;;;;;5051948;28;20029;-75
2022/01/02 11:30:53;;;;;;;12.05;8.30;;;;;;;;;;5051674;28;20494;-75
2022/01/02 11:33:20;;;;;;;12.43;8.38;;;;;;;;;;5051401;28;20119;-76
2022/01/02 11:35:49;;;;;;;13.73;8.27;;;;;;;;;;5034006;28;20031;-75
2022/01/02 11:38:17;;;;;;;13.38;8.55;;;;;;;;;;5052036;28;20113;-75
2022/01/02 11:40:46;;;;;;;13.57;9.10;;;;;;;;;;5032983;28;20127;-78
2022/01/02 11:43:31;;;;;;;13.90;9.40;;;;;;;;;;5032566;28;20063;-76
2022/01/02 11:46:14;;;;;;;13.88;8.63;;;;;;;;;;5051497;28;20029;-76
2022/01/02 11:48:41;;;;;;;11.88;8.05;;;;;;;;;;5017496;28;20044;-75
2022/01/02 11:51:07;;;;;;;13.45;8.32;;;;;;;;;;5051926;28;20493;-75
2022/01/02 11:53:36;;;;;;;14.70;9.60;;;;;;;;;;5050465;28;20021;-76
2022/01/02 11:56:03;;;;;;;15.50;9.15;;;;;;;;;;5050865;28;20033;-75
2022/01/02 11:58:55;;;;;;;17.00;10.13;;;;;;;;;;5032401;28;20025;-75
2022/01/02 12:01:40;;;;;;;15.35;9.38;;;;;;;;;;5023958;28;20045;-76
2022/01/02 12:04:06;;;;;;;15.05;10.25;;;;;;;;;;5049438;28;20143;-75
2022/01/02 12:06:33;;;;;;;17.45;9.45;;;;;;;;;;5050372;28;20059;-73
2022/01/02 12:09:00;;;;;;;19.02;9.30;;;;;;;;;;5050376;28;20017;-72
2022/01/02 12:11:49;;;;;;;16.77;10.10;;;;;;;;;;5050740;28;20024;-71
2022/01/02 12:14:22;;;;;;;21.58;12.52;;;;;;;;;;5046053;28;20041;-71
2022/01/02 12:17:07;;;;;;;16.02;10.20;;;;;;;;;;5047538;28;20106;-71
2022/01/02 12:19:53;;;;;;;30.52;15.75;;;;;;;;;;5051049;28;20079;-72
2022/01/02 12:22:19;;;;;;;28.77;15.13;;;;;;;;;;5047592;28;20108;-72
2022/01/02 12:24:46;;;;;;;36.42;19.52;;;;;;;;;;5049786;28;20573;-70
2022/01/02 12:27:16;;;;;;;39.45;19.27;;;;;;;;;;5050515;28;20036;-72
2022/01/02 12:29:42;;;;;;;29.63;17.98;;;;;;;;;;5050383;28;20120;-72
2022/01/02 12:32:09;;;;;;;18.77;11.95;;;;;;;;;;5050922;28;20505;-72
2022/01/02 12:34:35;;;;;;;24.27;13.25;;;;;;;;;;5049883;28;20087;-72
2022/01/02 12:37:03;;;;;;;24.17;13.63;;;;;;;;;;5050408;28;20482;-71
2022/01/02 12:39:30;;;;;;;23.77;12.98;;;;;;;;;;5032782;28;20116;-72
2022/01/02 12:42:11;;;;;;;22.88;11.85;;;;;;;;;;5050330;28;20061;-71
2022/01/02 12:44:37;;;;;;;20.55;11.60;;;;;;;;;;5049694;28;20017;-71
2022/01/02 12:47:05;;;;;;;20.58;10.98;;;;;;;;;;5050401;28;20021;-72
2022/01/02 12:49:35;;;;;;;19.83;12.60;;;;;;;;;;5050849;28;20435;-71
2022/01/02 12:52:05;;;;;;;16.27;11.00;;;;;;;;;;5050552;28;20100;-72
2022/01/02 12:54:33;;;;;;;18.92;10.88;;;;;;;;;;5032208;28;20025;-72
2022/01/02 12:57:00;;;;;;;19.33;11.07;;;;;;;;;;5050558;28;20021;-71
2022/01/02 12:59:26;;;;;;;15.52;10.15;;;;;;;;;;5050298;28;20055;-72
2022/01/02 13:01:52;;;;;;;16.50;9.68;;;;;;;;;;5031914;28;20064;-71
2022/01/02 13:04:18;;;;;;;16.63;10.63;;;;;;;;;;5049157;28;20025;-72
2022/01/02 13:06:47;;;;;;;17.10;10.75;;;;;;;;;;5050037;28;20036;-72
2022/01/02 13:09:21;;;;;;;19.80;10.98;;;;;;;;;;5032380;28;20029;-72
2022/01/02 13:11:47;;;;;;;18.33;10.55;;;;;;;;;;5049812;28;20039;-71
2022/01/02 13:14:13;;;;;;;19.67;10.88;;;;;;;;;;5048814;28;20021;-73
2022/01/02 13:16:39;;;;;;;19.75;10.40;;;;;;;;;;5014729;28;20028;-72
2022/01/02 13:19:06;;;;;;;15.57;9.55;;;;;;;;;;5048687;28;20029;-71
2022/01/02 13:21:32;;;;;;;20.35;11.60;;;;;;;;;;5049172;28;20060;-72
2022/01/02 13:24:18;;;;;;;15.80;10.32;;;;;;;;;;5049216;28;20140;-72
2022/01/02 13:26:44;;;;;;;19.05;10.25;;;;;;;;;;5023004;28;20068;-72
2022/01/02 13:29:10;;;;;;;14.45;9.20;;;;;;;;;;5049477;28;20502;-73
2022/01/02 13:31:36;;;;;;;18.58;11.45;;;;;;;;;;5048821;28;20412;-72
2022/01/02 13:34:02;;;;;;;15.93;10.73;;;;;;;;;;5048543;28;20057;-73
2022/01/02 13:36:28;;;;;;;18.50;10.25;;;;;;;;;;5046934;28;20528;-74
2022/01/02 13:39:01;;;;;;;18.50;10.40;;;;;;;;;;5048434;28;20017;-73
2022/01/02 13:41:27;;;;;;;18.85;10.98;;;;;;;;;;5048801;28;20018;-74
2022/01/02 13:43:54;;;;;;;17.50;10.10;;;;;;;;;;5047844;28;20077;-73
2022/01/02 13:46:20;;;;;;;17.63;9.98;;;;;;;;;;5030969;28;20060;-73
2022/01/02 13:48:46;;;;;;;17.10;10.18;;;;;;;;;;5050078;28;20478;-73
2022/01/02 13:51:13;;;;;;;17.58;10.50;;;;;;;;;;5049689;28;20025;-73
2022/01/02 13:53:39;;;;;;;16.13;10.00;;;;;;;;;;5048930;28;20021;-73
2022/01/02 13:56:05;;;;;;;13.70;9.95;;;;;;;;;;5049923;28;20021;-74
2022/01/02 13:58:41;;;;;;;15.50;10.35;;;;;;;;;;5031376;28;20063;-72
2022/01/02 14:01:15;;;;;;;23.08;11.90;;;;;;;;;;5050292;28;20036;-73
2022/01/02 14:03:43;;;;;;;20.45;12.13;;;;;;;;;;5049027;28;20032;-73
2022/01/02 14:06:09;;;;;;;19.00;11.82;;;;;;;;;;5042748;28;20029;-72
2022/01/02 14:08:41;;;;;;;21.05;12.43;;;;;;;;;;5045385;28;20060;-73
2022/01/02 14:11:11;;;;;;;26.65;12.57;;;;;;;;;;5047962;28;20029;-73
2022/01/02 14:13:48;;;;;;;21.45;11.93;;;;;;;;;;5047624;28;20481;-72
2022/01/02 14:16:31;;;;;;;18.85;10.73;;;;;;;;;;5030638;28;20195;-71
2022/01/02 14:18:57;;;;;;;18.08;10.88;;;;;;;;;;5050365;28;20450;-72
2022/01/02 14:21:23;;;;;;;17.08;10.82;;;;;;;;;;5049384;28;20025;-72
2022/01/02 14:23:49;;;;;;;22.13;11.82;;;;;;;;;;5051443;28;20413;-73
2022/01/02 14:26:15;;;;;;;17.20;10.68;;;;;;;;;;5053187;28;20033;-75
2022/01/02 14:28:41;;;;;;;18.80;10.32;;;;;;;;;;5035195;28;20040;-73
2022/01/02 14:31:07;;;;;;;18.55;11.13;;;;;;;;;;5052796;28;20474;-72
2022/01/02 14:33:33;;;;;;;19.05;11.30;;;;;;;;;;5051994;28;20055;-72
2022/01/02 14:35:59;;;;;;;22.90;12.32;;;;;;;;;;5052869;28;20059;-71
2022/01/02 14:38:25;;;;;;;20.90;13.48;;;;;;;;;;5052910;28;20071;-72